Time;durP1;ratioP1;P1;durP2;ratioP2;P2;SDS_P1;SDS_P2;PMS_P1;PMS_P2;Temp;Humidity;BMP_temperature;BMP_pressure;BME280_temperature;BME280_humidity;BME280_pressure;Samples;Min_cycle;Max_cycle;Signal;HPM_P1;HPM_P2
2023/02/15 00:01:09;;;;;;;94.82;36.35;;;1.40;99.90;;;;;;5047355;28;20040;-45
2023/02/15 00:03:35;;;;;;;68.13;34.15;;;1.40;99.90;;;;;;5063054;28;20379;-45
2023/02/15 00:06:01;;;;;;;63.13;34.30;;;1.40;99.90;;;;;;5047418;28;20017;-45
2023/02/15 00:08:26;;;;;;;64.30;33.05;;;1.40;99.90;;;;;;5050008;28;20053;-46
2023/02/15 00:10:52;;;;;;;75.85;36.05;;;1.30;99.90;;;;;;5051262;28;20017;-48
2023/02/15 00:13:17;;;;;;;59.10;32.80;;;1.30;99.90;;;;;;5051751;28;20428;-46
2023/02/15 00:15:43;;;;;;;57.55;31.40;;;1.30;99.90;;;;;;5051656;28;20055;-45
2023/02/15 00:18:08;;;;;;;50.63;28.52;;;1.30;99.90;;;;;;5051756;28;20025;-45
2023/02/15 00:20:34;;;;;;;53.15;30.65;;;1.30;99.90;;;;;;5051232;28;20064;-44
2023/02/15 00:23:00;;;;;;;60.05;31.45;;;1.20;99.90;;;;;;5051174;28;20020;-46
2023/02/15 00:25:26;;;;;;;61.20;30.33;;;1.20;99.90;;;;;;5051420;28;20017;-45
2023/02/15 00:27:51;;;;;;;49.17;29.80;;;1.30;99.90;;;;;;5051166;28;20057;-46
2023/02/15 00:30:17;;;;;;;109.05;35.28;;;1.20;99.90;;;;;;5051351;28;20033;-47
2023/02/15 00:32:42;;;;;;;49.38;28.45;;;1.20;99.90;;;;;;5050920;28;20029;-45
2023/02/15 00:35:09;;;;;;;95.80;33.97;;;1.20;99.90;;;;;;5051233;28;20052;-45
2023/02/15 00:37:34;;;;;;;53.08;30.90;;;1.10;99.90;;;;;;5050891;28;20017;-45
2023/02/15 00:40:00;;;;;;;58.17;33.00;;;1.00;99.90;;;;;;5051100;28;20033;-45
2023/02/15 00:42:26;;;;;;;56.67;32.03;;;1.00;99.90;;;;;;5050302;28;20394;-45
2023/02/15 00:44:51;;;;;;;59.13;32.60;;;1.00;99.90;;;;;;5050635;28;20025;-45
2023/02/15 00:47:17;;;;;;;52.97;30.63;;;1.10;99.90;;;;;;5050544;28;20033;-45
2023/02/15 00:49:42;;;;;;;53.03;29.38;;;1.10;99.90;;;;;;5050590;28;20079;-45
2023/02/15 00:52:08;;;;;;;54.17;30.38;;;1.00;99.90;;;;;;5050196;28;20024;-47
2023/02/15 00:54:34;;;;;;;54.55;32.03;;;1.00;99.90;;;;;;5050993;28;20025;-45
2023/02/15 00:57:00;;;;;;;57.65;32.28;;;1.00;99.90;;;;;;5050863;28;20021;-45
2023/02/15 00:59:25;;;;;;;53.00;29.85;;;1.00;99.90;;;;;;5050741;28;20413;-45
2023/02/15 01:01:51;;;;;;;59.63;32.97;;;1.00;99.90;;;;;;5050389;28;20446;-45
2023/02/15 01:04:16;;;;;;;56.00;30.85;;;1.00;99.90;;;;;;5050757;28;20528;-51
2023/02/15 01:06:42;;;;;;;49.20;28.77;;;1.00;99.90;;;;;;5048835;28;20676;-48
2023/02/15 01:09:08;;;;;;;56.45;31.88;;;1.00;99.90;;;;;;5065317;28;20031;-46
2023/02/15 01:11:33;;;;;;;47.55;28.90;;;1.00;99.90;;;;;;5049861;28;20487;-46
2023/02/15 01:13:59;;;;;;;50.17;29.38;;;0.90;99.90;;;;;;5050055;28;20029;-44
2023/02/15 01:16:27;;;;;;;51.35;29.45;;;0.90;99.90;;;;;;5049376;28;20472;-47
2023/02/15 01:18:54;;;;;;;52.85;29.83;;;0.90;99.90;;;;;;5049016;28;20404;-46
2023/02/15 01:21:22;;;;;;;50.88;29.00;;;0.90;99.90;;;;;;5050042;28;20481;-45
2023/02/15 01:23:48;;;;;;;50.97;29.42;;;0.90;99.90;;;;;;5050213;28;20523;-45
2023/02/15 01:26:14;;;;;;;47.78;27.98;;;0.90;99.90;;;;;;5050116;28;20023;-44
2023/02/15 01:28:40;;;;;;;57.15;30.42;;;0.80;99.90;;;;;;5049961;28;20021;-46
2023/02/15 01:31:07;;;;;;;52.30;28.38;;;0.80;99.90;;;;;;5064860;28;20103;-45
2023/02/15 01:33:34;;;;;;;49.20;27.55;;;0.80;99.90;;;;;;5049868;28;20029;-46
2023/02/15 01:35:59;;;;;;;48.17;27.50;;;0.80;99.90;;;;;;5048657;28;20483;-45
2023/02/15 01:38:25;;;;;;;49.70;29.38;;;0.80;99.90;;;;;;5049950;28;20071;-44
2023/02/15 01:40:52;;;;;;;50.53;29.23;;;0.80;99.90;;;;;;5049806;28;20244;-46
2023/02/15 01:43:18;;;;;;;48.38;28.10;;;0.80;99.90;;;;;;5050250;28;20299;-44
2023/02/15 01:45:48;;;;;;;48.10;28.95;;;0.80;99.90;;;;;;5047559;28;20428;-45
2023/02/15 01:48:25;;;;;;;55.92;30.50;;;0.80;99.90;;;;;;5050765;28;20489;-45
2023/02/15 01:50:55;;;;;;;52.55;29.90;;;0.80;99.90;;;;;;5050307;28;20017;-45
2023/02/15 01:53:24;;;;;;;48.78;28.50;;;0.80;99.90;;;;;;5065731;28;20025;-47
2023/02/15 01:56:03;;;;;;;49.53;27.88;;;0.80;99.90;;;;;;5065315;28;20021;-45
2023/02/15 01:58:30;;;;;;;45.53;26.50;;;0.80;99.90;;;;;;5049809;28;20021;-45
2023/02/15 02:00:58;;;;;;;49.15;28.15;;;0.80;99.90;;;;;;5048081;28;20025;-45
2023/02/15 02:03:38;;;;;;;45.13;25.95;;;0.80;99.90;;;;;;5047037;28;20496;-45
2023/02/15 02:06:04;;;;;;;48.72;28.55;;;0.70;99.90;;;;;;5049611;28;20021;-44
2023/02/15 02:08:31;;;;;;;51.63;27.90;;;0.70;99.90;;;;;;5049642;28;20096;-44
2023/02/15 02:10:56;;;;;;;49.00;28.48;;;0.70;99.90;;;;;;5049120;28;20096;-44
2023/02/15 02:13:22;;;;;;;49.47;28.77;;;0.70;99.90;;;;;;5049572;28;20033;-45
2023/02/15 02:15:51;;;;;;;49.72;29.25;;;0.70;99.90;;;;;;5049743;28;20476;-45
2023/02/15 02:18:37;;;;;;;46.40;26.25;;;0.60;99.90;;;;;;5049353;28;20028;-47
2023/02/15 02:21:31;;;;;;;46.83;25.48;;;0.60;99.90;;;;;;5064242;28;20033;-44
2023/02/15 02:24:27;;;;;;;53.17;29.73;;;0.50;99.90;;;;;;5049805;28;20106;-45
2023/02/15 02:27:17;;;;;;;48.72;26.55;;;0.40;99.90;;;;;;5049158;28;20047;-46
2023/02/15 02:29:48;;;;;;;45.30;25.50;;;0.40;99.90;;;;;;5048645;28;20023;-44
2023/02/15 02:33:08;;;;;;;53.53;30.25;;;0.40;99.90;;;;;;5048462;28;20491;-46
2023/02/15 02:36:04;;;;;;;52.33;28.50;;;0.30;99.90;;;;;;4990206;28;20021;-45
2023/02/15 02:38:58;;;;;;;53.30;28.95;;;0.40;99.90;;;;;;5040579;28;20455;-45
2023/02/15 02:41:32;;;;;;;52.42;29.40;;;0.40;99.90;;;;;;5037662;28;20048;-45
2023/02/15 02:44:25;;;;;;;53.45;27.70;;;0.40;99.90;;;;;;5049147;28;20021;-45
2023/02/15 02:47:07;;;;;;;59.30;31.05;;;0.40;99.90;;;;;;5047580;28;20388;-45
2023/02/15 02:49:38;;;;;;;55.63;28.63;;;0.40;99.90;;;;;;5047655;28;20021;-46
2023/02/15 02:52:07;;;;;;;57.00;30.08;;;0.40;99.90;;;;;;5046019;28;20421;-45
2023/02/15 02:54:35;;;;;;;57.88;32.45;;;0.40;99.90;;;;;;5049507;28;20083;-45
2023/02/15 02:57:05;;;;;;;59.20;29.92;;;0.40;99.90;;;;;;5048953;28;20027;-45
2023/02/15 02:59:36;;;;;;;54.78;28.10;;;0.40;99.90;;;;;;5049183;28;20021;-45
2023/02/15 03:02:28;;;;;;;;;;;0.40;99.90;;;;;;5049348;28;20026;-45
2023/02/15 03:05:03;;;;;;;55.22;29.15;;;0.40;99.90;;;;;;5047474;28;19908;-45
2023/02/15 03:07:30;;;;;;;61.80;30.52;;;0.30;99.90;;;;;;5046610;28;20021;-45
2023/02/15 03:09:58;;;;;;;59.85;30.35;;;0.30;99.90;;;;;;5048679;28;20027;-45
2023/02/15 03:12:37;;;;;;;56.58;29.65;;;0.20;99.90;;;;;;5048190;28;20108;-46
2023/02/15 03:15:10;;;;;;;63.70;29.42;;;0.20;99.90;;;;;;5048804;28;20024;-45
2023/02/15 03:17:41;;;;;;;62.10;31.20;;;0.20;99.90;;;;;;5048588;28;20017;-45
2023/02/15 03:20:31;;;;;;;56.97;29.27;;;0.10;99.90;;;;;;5046336;28;20072;-45
2023/02/15 03:23:09;;;;;;;51.22;27.63;;;0.00;99.90;;;;;;5064025;28;20128;-47
2023/02/15 03:25:39;;;;;;;54.30;27.33;;;0.00;99.90;;;;;;5039224;28;20039;-44
2023/02/15 03:28:12;;;;;;;54.58;28.13;;;0.00;99.90;;;;;;5061095;28;20040;-45
2023/02/15 03:30:40;;;;;;;53.92;28.20;;;-0.10;99.90;;;;;;5048101;28;20510;-46
2023/02/15 03:33:07;;;;;;;56.97;29.35;;;0.00;99.90;;;;;;5048162;28;20036;-47
2023/02/15 03:35:58;;;;;;;51.53;28.30;;;0.00;99.90;;;;;;5046961;28;20017;-45
2023/02/15 03:38:39;;;;;;;48.05;26.17;;;0.00;99.90;;;;;;5048145;28;20021;-45
2023/02/15 03:41:10;;;;;;;56.00;29.85;;;0.00;99.90;;;;;;5044053;28;20466;-48
2023/02/15 03:43:49;;;;;;;50.65;27.75;;;0.00;99.90;;;;;;5051363;28;20017;-47
2023/02/15 03:46:22;;;;;;;58.45;29.70;;;0.00;99.90;;;;;;5051293;28;20021;-46
2023/02/15 03:48:54;;;;;;;52.90;28.85;;;0.00;99.90;;;;;;5050069;28;20023;-49
2023/02/15 03:51:34;;;;;;;59.95;28.67;;;0.00;99.90;;;;;;5051855;28;20025;-46
2023/02/15 03:54:10;;;;;;;59.03;31.80;;;0.00;99.90;;;;;;5048403;28;20183;-45
2023/02/15 03:56:37;;;;;;;63.08;32.28;;;0.00;99.90;;;;;;5051730;28;20686;-47
2023/02/15 04:02:12;;;;;;;65.40;32.85;;;0.00;99.90;;;;;;5051175;28;20039;-45
2023/02/15 04:04:42;;;;;;;72.90;33.65;;;0.00;99.90;;;;;;5050609;28;20024;-45
2023/02/15 04:07:09;;;;;;;81.05;36.13;;;0.00;99.90;;;;;;5049209;28;20032;-46
2023/02/15 04:12:19;;;;;;;78.57;35.15;;;-0.10;99.90;;;;;;5050898;28;20146;-45
2023/02/15 04:17:29;;;;;;;82.03;41.45;;;-0.10;99.90;;;;;;5049464;28;20518;-45
2023/02/15 04:25:22;;;;;;;71.00;33.65;;;-0.20;99.90;;;;;;5051664;28;20083;-46
2023/02/15 04:27:53;;;;;;;77.22;33.92;;;-0.20;99.90;;;;;;5051110;28;20491;-46
2023/02/15 04:30:22;;;;;;;66.57;34.58;;;-0.20;99.90;;;;;;5050363;28;20150;-47
2023/02/15 04:32:48;;;;;;;69.30;33.03;;;-0.20;99.90;;;;;;5050885;28;20092;-46
2023/02/15 04:35:14;;;;;;;58.88;28.33;;;-0.30;99.90;;;;;;5067229;28;20299;-46
2023/02/15 04:37:41;;;;;;;60.17;29.90;;;-0.30;99.90;;;;;;5051198;28;20083;-46
2023/02/15 04:40:09;;;;;;;60.58;30.02;;;-0.30;99.90;;;;;;5051574;28;20082;-49
2023/02/15 04:42:35;;;;;;;55.85;30.00;;;-0.40;99.90;;;;;;5050937;28;20622;-46
2023/02/15 04:45:00;;;;;;;57.13;29.08;;;-0.40;99.90;;;;;;5066648;28;20024;-46
2023/02/15 04:47:26;;;;;;;60.47;28.80;;;-0.30;99.90;;;;;;5051952;28;20017;-46
2023/02/15 04:49:52;;;;;;;59.33;28.70;;;-0.40;99.90;;;;;;5051007;28;20021;-46
2023/02/15 04:52:17;;;;;;;60.17;27.52;;;-0.30;99.90;;;;;;5051345;28;20570;-48
2023/02/15 04:54:43;;;;;;;61.10;29.33;;;-0.50;99.90;;;;;;5051374;28;20025;-47
2023/02/15 04:57:09;;;;;;;58.17;28.73;;;-0.50;99.90;;;;;;5051655;28;20479;-46
2023/02/15 04:59:35;;;;;;;58.58;30.50;;;-0.50;99.90;;;;;;5051392;28;20087;-45
2023/02/15 05:02:00;;;;;;;56.17;27.52;;;-0.50;99.90;;;;;;5050721;28;20079;-45
2023/02/15 05:04:26;;;;;;;56.08;27.48;;;-0.50;99.90;;;;;;5050904;28;20402;-46
2023/02/15 05:06:51;;;;;;;53.20;28.00;;;-0.50;99.90;;;;;;5051170;28;20057;-46
2023/02/15 05:09:17;;;;;;;54.60;27.75;;;-0.50;99.90;;;;;;5065210;28;20488;-46
2023/02/15 05:11:43;;;;;;;52.58;27.90;;;-0.50;99.90;;;;;;5052603;28;20021;-46
2023/02/15 05:14:08;;;;;;;57.45;27.90;;;-0.60;99.90;;;;;;5051417;28;20033;-46
2023/02/15 05:16:34;;;;;;;60.92;29.95;;;-0.60;99.90;;;;;;5050983;28;20027;-46
2023/02/15 05:19:00;;;;;;;60.45;31.95;;;-0.60;99.90;;;;;;5050728;28;20025;-45
2023/02/15 05:21:26;;;;;;;61.55;30.77;;;-0.60;99.90;;;;;;5066169;28;20491;-46
2023/02/15 05:23:51;;;;;;;64.78;32.45;;;-0.60;99.90;;;;;;5051125;28;20033;-46
2023/02/15 05:29:05;;;;;;;61.22;30.08;;;-0.60;99.90;;;;;;5049593;28;20067;-45
2023/02/15 05:31:31;;;;;;;63.65;30.40;;;-0.60;99.90;;;;;;5050700;28;20021;-45
2023/02/15 05:33:57;;;;;;;60.63;29.05;;;-0.60;99.90;;;;;;5048124;28;20029;-45
2023/02/15 05:36:23;;;;;;;63.90;29.75;;;-0.60;99.90;;;;;;5050671;28;20021;-46
2023/02/15 05:38:49;;;;;;;62.78;31.20;;;-0.60;99.90;;;;;;5050695;28;20044;-47
2023/02/15 05:41:14;;;;;;;64.53;31.38;;;-0.70;99.90;;;;;;5050167;28;20021;-46
2023/02/15 05:43:40;;;;;;;51.05;26.85;;;-0.70;99.90;;;;;;5050299;28;20108;-47
2023/02/15 05:46:06;;;;;;;55.75;28.60;;;-0.70;99.90;;;;;;5050587;28;20024;-45
2023/02/15 05:48:32;;;;;;;61.30;28.75;;;-0.70;99.90;;;;;;5051140;28;20549;-45
2023/02/15 05:51:02;;;;;;;59.20;29.25;;;-0.70;99.90;;;;;;5050495;28;20029;-45
2023/02/15 05:53:30;;;;;;;51.33;26.45;;;-0.70;99.90;;;;;;5049136;28;20122;-45
2023/02/15 05:55:58;;;;;;;57.30;27.77;;;-0.70;99.90;;;;;;5050494;28;20032;-46
2023/02/15 05:58:29;;;;;;;56.20;27.00;;;-0.70;99.90;;;;;;5050518;28;20427;-45
2023/02/15 06:00:55;;;;;;;;;;;-0.80;99.90;;;;;;5051040;28;20028;-45
2023/02/15 06:03:21;;;;;;;53.88;26.35;;;-0.80;99.90;;;;;;5050362;28;19908;-46
2023/02/15 06:05:46;;;;;;;54.38;27.63;;;-0.80;99.90;;;;;;5048047;28;20009;-45
2023/02/15 06:08:12;;;;;;;56.83;27.92;;;-0.80;99.90;;;;;;5050653;28;20028;-45
2023/02/15 06:10:39;;;;;;;54.67;27.52;;;-0.90;99.90;;;;;;5050376;28;20039;-45
2023/02/15 06:13:05;;;;;;;58.00;26.90;;;-0.90;99.90;;;;;;5048158;28;20028;-45
2023/02/15 06:15:31;;;;;;;56.75;28.55;;;-0.90;99.90;;;;;;5050542;28;20021;-45
2023/02/15 06:17:56;;;;;;;53.83;27.35;;;-0.90;99.90;;;;;;5051985;28;20052;-45
2023/02/15 06:20:22;;;;;;;49.97;26.77;;;-0.90;99.90;;;;;;5048475;28;20064;-45
2023/02/15 06:22:47;;;;;;;58.78;29.17;;;-1.00;99.90;;;;;;5049653;28;20032;-45
2023/02/15 06:25:13;;;;;;;55.08;26.02;;;-1.00;99.90;;;;;;5048729;28;20441;-45
2023/02/15 06:27:42;;;;;;;56.95;28.88;;;-1.00;99.90;;;;;;5047453;28;20090;-46
2023/02/15 06:30:09;;;;;;;58.17;28.23;;;-1.00;99.90;;;;;;5048037;28;20017;-45
2023/02/15 06:32:35;;;;;;;50.88;25.83;;;-1.00;99.90;;;;;;5049257;28;20411;-47
2023/02/15 06:35:00;;;;;;;55.08;27.73;;;-0.90;99.90;;;;;;5047346;28;20025;-45
2023/02/15 06:37:26;;;;;;;50.70;27.20;;;-1.00;99.90;;;;;;5049263;28;20096;-45
2023/02/15 06:39:52;;;;;;;61.38;30.05;;;-1.00;99.90;;;;;;5049537;28;20067;-46
2023/02/15 06:42:18;;;;;;;55.15;26.90;;;-1.00;99.90;;;;;;5066881;28;20059;-45
2023/02/15 06:44:44;;;;;;;58.58;28.80;;;-1.00;99.90;;;;;;5058510;28;20049;-45
2023/02/15 06:47:10;;;;;;;63.47;29.02;;;-0.90;99.90;;;;;;5049303;28;20468;-47
2023/02/15 06:49:36;;;;;;;58.13;29.40;;;-0.90;99.90;;;;;;5048709;28;20506;-45
2023/02/15 06:52:02;;;;;;;61.75;31.17;;;-0.90;99.90;;;;;;5049379;28;20025;-47
2023/02/15 06:54:28;;;;;;;59.08;27.77;;;-0.90;99.90;;;;;;5049816;28;20025;-46
2023/02/15 06:56:54;;;;;;;61.67;29.70;;;-0.90;99.90;;;;;;5047984;28;20154;-46
2023/02/15 06:59:19;;;;;;;56.20;27.38;;;-1.00;99.90;;;;;;5049602;28;20066;-45
2023/02/15 07:01:45;;;;;;;52.92;25.92;;;-1.00;99.90;;;;;;5064987;28;20469;-45
2023/02/15 07:04:10;;;;;;;55.67;26.38;;;-0.90;99.90;;;;;;5049567;28;20029;-45
2023/02/15 07:06:36;;;;;;;51.58;26.05;;;-0.90;99.90;;;;;;5064830;28;20021;-45
2023/02/15 07:09:02;;;;;;;53.75;27.85;;;-0.90;99.90;;;;;;5049769;28;20082;-46
2023/02/15 07:14:13;;;;;;;51.38;24.98;;;-0.80;99.90;;;;;;5048688;28;20074;-46
2023/02/15 07:16:38;;;;;;;52.13;26.33;;;-0.80;99.90;;;;;;5049075;28;20120;-45
2023/02/15 07:19:04;;;;;;;51.83;26.05;;;-0.80;99.90;;;;;;5047843;28;20029;-45
2023/02/15 07:21:29;;;;;;;50.08;27.08;;;-0.80;99.90;;;;;;5048928;28;20029;-46
2023/02/15 07:23:58;;;;;;;50.05;25.05;;;-0.80;99.90;;;;;;5049105;28;20087;-47
2023/02/15 07:26:24;;;;;;;50.08;27.42;;;-0.80;99.90;;;;;;5048372;28;20044;-47
2023/02/15 07:28:49;;;;;;;54.85;27.15;;;-0.80;99.90;;;;;;5064450;28;20017;-45
2023/02/15 07:31:15;;;;;;;58.80;26.92;;;-0.70;99.90;;;;;;5048913;28;20427;-46
2023/02/15 07:33:41;;;;;;;53.75;26.45;;;-0.70;99.90;;;;;;5048981;28;20029;-46
2023/02/15 07:36:07;;;;;;;49.35;25.58;;;-0.70;99.90;;;;;;5048677;28;20487;-45
2023/02/15 07:38:34;;;;;;;53.45;25.60;;;-0.70;99.90;;;;;;5048679;28;20017;-46
2023/02/15 07:41:01;;;;;;;53.80;27.02;;;-0.70;99.90;;;;;;5048036;28;20116;-46
2023/02/15 07:43:29;;;;;;;49.95;25.30;;;-0.70;99.90;;;;;;5048522;28;20364;-46
2023/02/15 07:45:58;;;;;;;49.90;25.73;;;-0.60;99.90;;;;;;5064374;28;20013;-45
2023/02/15 07:48:23;;;;;;;50.67;26.80;;;-0.50;99.90;;;;;;5048626;28;20075;-45
2023/02/15 07:50:49;;;;;;;56.65;30.40;;;-0.50;99.90;;;;;;5048292;28;20025;-46
2023/02/15 07:53:14;;;;;;;55.40;27.85;;;-0.50;99.90;;;;;;5048316;28;20024;-48
2023/02/15 07:55:40;;;;;;;53.90;27.33;;;-0.50;99.90;;;;;;5048319;28;20032;-45
2023/02/15 07:58:05;;;;;;;57.10;28.50;;;-0.40;99.90;;;;;;5047030;28;20028;-46
2023/02/15 08:00:55;;;;;;;58.85;28.63;;;-0.40;99.90;;;;;;5048349;28;20032;-47
2023/02/15 08:03:16;;;;;;;48.10;25.50;;;-0.30;99.90;;;;;;5047615;28;20412;-50
2023/02/15 08:05:44;;;;;;;58.15;30.25;;;-0.20;99.90;;;;;;5049569;28;20032;-44
2023/02/15 08:13:53;;;;;;;58.35;28.42;;;-0.10;99.90;;;;;;5047485;28;20116;-46
2023/02/15 08:16:33;;;;;;;56.92;29.52;;;0.00;99.90;;;;;;5049143;28;20104;-44
2023/02/15 08:19:03;;;;;;;56.35;27.63;;;0.00;99.90;;;;;;5048806;28;20249;-44
2023/02/15 08:21:29;;;;;;;59.83;30.33;;;0.10;99.90;;;;;;5043669;28;20500;-44
2023/02/15 08:23:56;;;;;;;57.85;29.25;;;0.10;99.90;;;;;;5050953;28;20201;-44
2023/02/15 08:26:22;;;;;;;56.05;28.48;;;0.20;99.90;;;;;;5068592;28;20635;-44
2023/02/15 08:28:48;;;;;;;59.47;27.65;;;0.20;99.90;;;;;;5053756;28;20095;-45
2023/02/15 08:31:15;;;;;;;52.53;25.73;;;0.20;99.90;;;;;;5051647;28;20025;-47
2023/02/15 08:33:43;;;;;;;56.80;27.30;;;0.30;99.90;;;;;;5052571;28;20029;-45
2023/02/15 08:36:14;;;;;;;55.78;27.88;;;0.40;99.90;;;;;;5052348;28;20464;-45
2023/02/15 08:38:41;;;;;;;47.25;24.95;;;0.40;99.90;;;;;;5052402;28;20056;-45
2023/02/15 08:41:20;;;;;;;49.45;25.95;;;0.50;99.90;;;;;;5066812;28;20107;-45
2023/02/15 08:43:48;;;;;;;50.67;26.30;;;0.60;99.90;;;;;;5051944;28;20081;-45
2023/02/15 08:46:15;;;;;;;49.72;25.75;;;0.60;99.90;;;;;;5050743;28;20090;-45
2023/02/15 08:48:41;;;;;;;54.75;27.80;;;0.70;99.90;;;;;;5050779;28;20021;-45
2023/02/15 08:51:10;;;;;;;57.55;27.85;;;0.80;99.90;;;;;;5051623;28;20028;-45
2023/02/15 08:53:39;;;;;;;50.05;27.35;;;0.80;99.90;;;;;;5050855;28;20039;-45
2023/02/15 08:56:05;;;;;;;51.50;26.13;;;0.90;99.90;;;;;;5051963;28;20047;-45
2023/02/15 08:58:31;;;;;;;62.42;31.02;;;1.00;99.90;;;;;;5051803;28;20086;-45
2023/02/15 09:00:58;;;;;;;52.17;28.02;;;1.00;99.90;;;;;;5050225;28;20029;-45
2023/02/15 09:03:23;;;;;;;51.00;26.98;;;1.10;99.90;;;;;;5057247;28;20021;-45
2023/02/15 09:05:49;;;;;;;66.05;30.42;;;1.20;99.90;;;;;;5071534;28;20543;-45
2023/02/15 09:08:15;;;;;;;56.60;27.88;;;1.20;99.90;;;;;;5071984;28;20024;-45
2023/02/15 09:10:40;;;;;;;55.38;28.42;;;1.30;99.90;;;;;;5071433;28;20051;-45
2023/02/15 09:13:06;;;;;;;47.58;25.17;;;1.40;99.90;;;;;;5071389;28;20025;-44
2023/02/15 09:15:32;;;;;;;53.78;27.33;;;1.50;99.90;;;;;;5071717;28;20035;-44
2023/02/15 09:18:01;;;;;;;50.80;26.60;;;1.60;99.90;;;;;;5071641;28;20028;-44
2023/02/15 09:20:27;;;;;;;49.03;27.35;;;1.70;99.90;;;;;;5071378;28;20028;-45
2023/02/15 09:22:54;;;;;;;56.05;30.35;;;1.90;99.90;;;;;;5065290;28;20044;-45
2023/02/15 09:25:19;;;;;;;60.97;28.90;;;2.10;99.90;;;;;;5051407;28;20035;-45
2023/02/15 09:27:45;;;;;;;45.58;25.73;;;2.20;99.90;;;;;;5051100;28;20379;-44
2023/02/15 09:30:11;;;;;;;50.38;27.20;;;2.30;99.90;;;;;;5051533;28;20021;-47
2023/02/15 09:32:36;;;;;;;50.25;27.27;;;2.40;99.90;;;;;;5051305;28;20025;-44
2023/02/15 09:35:02;;;;;;;52.25;28.73;;;2.50;99.90;;;;;;5060153;28;20104;-45
2023/02/15 09:37:29;;;;;;;52.70;29.25;;;2.60;99.90;;;;;;5051677;28;20047;-44
2023/02/15 09:39:55;;;;;;;46.38;26.95;;;2.70;99.90;;;;;;5050259;28;20017;-44
2023/02/15 09:42:38;;;;;;;50.33;27.27;;;2.90;99.90;;;;;;5051801;28;20108;-45
2023/02/15 09:45:10;;;;;;;41.45;25.70;;;3.40;99.90;;;;;;5057717;28;20503;-45
2023/02/15 09:48:03;;;;;;;34.13;21.85;;;5.10;99.90;;;;;;5051526;28;20060;-46
2023/02/15 09:50:53;;;;;;;26.50;19.30;;;7.70;99.90;;;;;;5051221;28;20025;-45
2023/02/15 09:53:48;;;;;;;26.65;18.90;;;10.90;99.90;;;;;;5049724;28;20120;-44
2023/02/15 09:56:37;;;;;;;20.25;15.48;;;13.40;98.10;;;;;;5051195;28;20385;-47
2023/02/15 09:59:26;;;;;;;22.65;17.85;;;14.90;94.90;;;;;;5050598;28;20103;-45
2023/02/15 10:02:12;;;;;;;18.85;14.73;;;15.90;87.90;;;;;;5051457;28;20025;-46
2023/02/15 10:04:48;;;;;;;20.15;15.15;;;17.40;80.70;;;;;;5061671;28;20029;-45
2023/02/15 10:07:17;;;;;;;19.80;17.70;;;18.70;73.70;;;;;;5049960;28;20013;-46
2023/02/15 10:09:42;;;;;;;16.85;15.05;;;18.90;67.50;;;;;;5039396;28;20471;-46
2023/02/15 10:12:47;;;;;;;17.50;12.90;;;19.70;66.20;;;;;;5030602;28;20048;-45
2023/02/15 10:15:22;;;;;;;19.50;16.33;;;20.90;61.60;;;;;;5030847;28;20056;-45
2023/02/15 10:17:56;;;;;;;19.15;17.10;;;20.90;60.40;;;;;;5039372;28;20451;-46
2023/02/15 10:20:22;;;;;;;17.88;15.32;;;21.10;58.40;;;;;;5036425;28;20033;-46
2023/02/15 10:23:06;;;;;;;15.13;13.43;;;21.50;58.50;;;;;;5056716;28;20547;-46
2023/02/15 10:26:11;;;;;;;21.38;16.27;;;21.90;56.90;;;;;;5045624;28;20021;-49
2023/02/15 10:28:51;;;;;;;18.23;16.33;;;22.40;55.80;;;;;;5043618;28;20100;-45
2023/02/15 10:31:35;;;;;;;17.27;15.48;;;22.30;55.60;;;;;;5043614;28;20033;-49
2023/02/15 10:34:03;;;;;;;17.23;15.43;;;22.30;55.30;;;;;;5048723;28;20104;-46
2023/02/15 10:37:00;;;;;;;15.55;13.82;;;22.30;55.80;;;;;;5049731;28;20048;-49
2023/02/15 10:39:37;;;;;;;17.48;15.52;;;22.00;56.20;;;;;;5049693;28;20078;-45
2023/02/15 10:42:15;;;;;;;17.40;14.95;;;22.00;57.00;;;;;;5053294;28;20446;-48
2023/02/15 10:44:49;;;;;;;15.48;13.82;;;21.90;56.50;;;;;;5046703;28;20557;-45
2023/02/15 10:47:46;;;;;;;17.52;15.65;;;22.10;57.10;;;;;;5047250;28;20044;-44
2023/02/15 10:50:29;;;;;;;17.90;15.50;;;22.50;54.60;;;;;;5046595;28;20017;-45
2023/02/15 10:53:28;;;;;;;15.68;14.05;;;22.80;54.80;;;;;;5044356;28;20017;-45
2023/02/15 10:56:20;;;;;;;14.70;12.38;;;23.10;54.70;;;;;;5059766;28;20251;-45
2023/02/15 10:59:08;;;;;;;17.80;13.85;;;23.40;53.10;;;;;;5045142;28;20037;-45
2023/02/15 11:01:36;;;;;;;17.15;15.25;;;23.90;52.70;;;;;;5046173;28;20021;-46
2023/02/15 11:04:08;;;;;;;17.38;15.57;;;23.60;53.80;;;;;;5048905;28;20024;-45
2023/02/15 11:06:36;;;;;;;16.77;15.05;;;23.60;51.90;;;;;;5046705;28;20021;-47
2023/02/15 11:09:08;;;;;;;17.42;15.00;;;23.00;52.40;;;;;;5064485;28;20021;-47
2023/02/15 11:11:39;;;;;;;16.65;14.70;;;21.50;56.00;;;;;;5046151;28;20021;-46
2023/02/15 11:14:38;;;;;;;17.42;15.65;;;21.70;56.60;;;;;;5049007;28;20138;-46
2023/02/15 11:17:14;;;;;;;17.48;15.40;;;22.20;55.40;;;;;;5048040;28;20044;-47
2023/02/15 11:20:00;;;;;;;16.67;14.32;;;22.60;54.70;;;;;;5063383;28;20032;-48
2023/02/15 11:22:26;;;;;;;14.45;12.30;;;22.70;54.50;;;;;;5047242;28;20487;-46
2023/02/15 11:24:51;;;;;;;14.30;12.85;;;23.10;53.70;;;;;;5050222;28;20064;-47
2023/02/15 11:27:27;;;;;;;14.63;11.85;;;23.30;55.00;;;;;;5050247;28;20028;-47
2023/02/15 11:30:15;;;;;;;11.55;10.35;;;23.40;54.70;;;;;;5050057;28;20047;-47
2023/02/15 11:32:44;;;;;;;9.52;7.32;;;23.80;55.10;;;;;;5050181;28;20100;-46
2023/02/15 11:35:09;;;;;;;8.60;7.23;;;23.90;53.80;;;;;;5050197;28;20025;-46
2023/02/15 11:38:07;;;;;;;9.35;7.90;;;24.20;51.90;;;;;;5065814;28;20044;-45
2023/02/15 11:40:56;;;;;;;9.27;7.63;;;23.80;53.10;;;;;;5042841;28;20025;-47
2023/02/15 11:43:43;;;;;;;7.47;6.47;;;23.10;52.10;;;;;;5049590;28;20032;-46
2023/02/15 11:46:11;;;;;;;6.78;5.93;;;22.80;51.60;;;;;;5047940;28;20032;-46
2023/02/15 11:48:38;;;;;;;7.45;6.63;;;23.00;53.10;;;;;;5050340;28;20052;-48
2023/02/15 11:51:04;;;;;;;6.72;6.05;;;22.90;52.50;;;;;;5049893;28;20488;-47
2023/02/15 11:53:33;;;;;;;6.25;5.65;;;22.90;52.20;;;;;;5050195;28;20021;-48
2023/02/15 11:56:00;;;;;;;7.80;6.93;;;22.70;53.70;;;;;;5050049;28;20021;-47
2023/02/15 11:58:31;;;;;;;7.10;6.40;;;22.30;54.50;;;;;;5049984;28;20041;-48
2023/02/15 12:01:24;;;;;;;7.00;6.30;;;22.50;52.30;;;;;;5049400;28;20480;-45
2023/02/15 12:04:28;;;;;;;9.20;7.30;;;22.40;55.30;;;;;;5051756;28;20067;-46
2023/02/15 12:06:59;;;;;;;7.10;6.40;;;22.80;53.50;;;;;;5051771;28;20500;-46
2023/02/15 12:09:35;;;;;;;6.05;5.45;;;22.30;55.30;;;;;;5067939;28;20391;-48
2023/02/15 12:12:20;;;;;;;10.02;6.55;;;22.10;54.70;;;;;;5052737;28;20044;-49
2023/02/15 12:14:51;;;;;;;7.93;6.70;;;21.80;54.80;;;;;;5054128;28;20032;-46
2023/02/15 12:17:17;;;;;;;9.38;6.38;;;21.80;55.20;;;;;;5069290;28;20029;-49
2023/02/15 12:19:45;;;;;;;8.95;6.32;;;21.60;53.20;;;;;;5058361;28;20123;-45
2023/02/15 12:22:32;;;;;;;6.93;5.93;;;21.80;54.90;;;;;;5072799;28;20021;-46
2023/02/15 12:25:04;;;;;;;7.03;6.32;;;21.90;53.20;;;;;;5073432;28;20130;-49
2023/02/15 12:27:32;;;;;;;8.02;6.00;;;21.40;52.90;;;;;;5071797;28;20027;-45
2023/02/15 12:30:01;;;;;;;8.98;7.40;;;21.40;54.50;;;;;;5072317;28;20071;-45
2023/02/15 12:32:33;;;;;;;9.07;6.47;;;21.10;53.80;;;;;;5071652;28;20017;-47
2023/02/15 12:35:14;;;;;;;9.30;7.55;;;21.20;54.70;;;;;;5059435;28;20496;-46
2023/02/15 12:37:56;;;;;;;6.65;5.95;;;21.30;55.70;;;;;;5052513;28;20021;-45
2023/02/15 12:40:28;;;;;;;9.07;6.68;;;21.20;56.40;;;;;;5052614;28;20029;-45
2023/02/15 12:42:54;;;;;;;7.13;6.35;;;20.80;54.20;;;;;;5051783;28;20086;-46
2023/02/15 12:45:26;;;;;;;7.53;6.63;;;20.30;56.00;;;;;;5052277;28;20020;-44
2023/02/15 12:48:22;;;;;;;7.45;6.68;;;20.00;55.90;;;;;;5052528;28;20067;-47
2023/02/15 12:50:49;;;;;;;7.63;5.82;;;19.70;55.70;;;;;;5038202;28;20025;-45
2023/02/15 12:53:19;;;;;;;10.48;7.07;;;19.40;58.30;;;;;;5052259;28;20087;-44
2023/02/15 12:55:55;;;;;;;8.30;6.68;;;18.80;59.10;;;;;;5052004;28;20120;-44
2023/02/15 12:58:25;;;;;;;9.25;6.60;;;18.60;60.90;;;;;;5054842;28;20033;-44
2023/02/15 13:01:09;;;;;;;8.65;6.80;;;18.40;61.90;;;;;;5071550;28;20044;-45
2023/02/15 13:03:36;;;;;;;11.35;7.00;;;17.70;59.40;;;;;;5071745;28;20048;-45
2023/02/15 13:06:07;;;;;;;8.48;6.53;;;17.50;61.60;;;;;;5070347;28;20430;-44
2023/02/15 13:08:38;;;;;;;14.95;7.18;;;17.30;60.40;;;;;;5063321;28;20061;-45
2023/02/15 13:11:11;;;;;;;9.93;6.25;;;17.30;63.70;;;;;;5051577;28;20017;-46
2023/02/15 13:14:15;;;;;;;8.77;6.78;;;17.30;62.90;;;;;;5051531;28;20442;-45
2023/02/15 13:16:42;;;;;;;10.93;7.30;;;17.50;59.70;;;;;;5041348;28;20033;-40
2023/02/15 13:19:16;;;;;;;12.38;7.95;;;17.20;61.30;;;;;;5065015;28;20060;-39
2023/02/15 13:21:45;;;;;;;7.63;6.25;;;17.00;61.70;;;;;;5054138;28;20029;-39